createdAt,value
2023-03-06T00:00:50.643Z,11.77
2023-03-06T00:03:17.669Z,12.40
2023-03-06T00:05:44.815Z,11.57
2023-03-06T00:08:11.830Z,11.60
2023-03-06T00:10:39.273Z,11.80
2023-03-06T00:13:09.109Z,11.52
2023-03-06T00:15:35.957Z,11.10
2023-03-06T00:18:06.390Z,10.60
2023-03-06T00:20:34.346Z,10.45
2023-03-06T00:23:01.149Z,10.40
2023-03-06T00:25:28.044Z,11.00
2023-03-06T00:27:54.839Z,11.05
2023-03-06T00:30:24.829Z,11.77
2023-03-06T00:32:53.274Z,11.07
2023-03-06T00:35:21.257Z,11.98
2023-03-06T00:37:48.300Z,11.20
2023-03-06T00:40:17.984Z,11.57
2023-03-06T00:42:45.500Z,11.10
2023-03-06T00:45:13.571Z,10.45
2023-03-06T00:47:40.678Z,10.70
2023-03-06T00:50:08.677Z,10.43
2023-03-06T00:52:36.353Z,10.65
2023-03-06T00:55:03.696Z,11.07
2023-03-06T00:57:30.469Z,9.20
2023-03-06T00:59:57.601Z,10.63
2023-03-06T01:02:24.934Z,11.40
2023-03-06T01:04:54.484Z,10.60
2023-03-06T01:07:21.382Z,11.55
2023-03-06T01:09:48.207Z,11.02
2023-03-06T01:12:15.359Z,11.73
2023-03-06T01:14:42.242Z,10.32
2023-03-06T01:17:11.655Z,11.18
2023-03-06T01:19:38.533Z,10.95
2023-03-06T01:22:05.325Z,11.00
2023-03-06T01:24:32.160Z,10.93
2023-03-06T01:26:58.939Z,11.13
2023-03-06T01:29:26.484Z,12.48
2023-03-06T01:31:53.452Z,11.75
2023-03-06T01:34:20.382Z,11.85
2023-03-06T01:36:47.178Z,11.70
2023-03-06T01:39:14.315Z,11.57
2023-03-06T01:41:41.602Z,12.20
2023-03-06T01:44:13.656Z,12.35
2023-03-06T01:46:42.990Z,11.63
2023-03-06T01:49:23.713Z,11.93
2023-03-06T01:52:08.977Z,11.85
2023-03-06T01:55:01.804Z,11.23
2023-03-06T01:57:40.328Z,10.70
2023-03-06T02:00:14.833Z,11.40
2023-03-06T02:02:46.703Z,11.82
2023-03-06T02:05:14.189Z,11.02
2023-03-06T02:07:43.339Z,10.93
2023-03-06T02:10:14.705Z,11.98
2023-03-06T02:12:43.809Z,11.40
2023-03-06T02:15:13.384Z,11.32
2023-03-06T02:17:43.716Z,11.77
2023-03-06T02:20:19.890Z,11.68
2023-03-06T02:22:50.205Z,12.35
2023-03-06T02:25:38.297Z,11.55
2023-03-06T02:28:08.897Z,12.77
2023-03-06T02:30:37.057Z,12.60
2023-03-06T02:33:05.000Z,11.60
2023-03-06T02:35:38.441Z,11.70
2023-03-06T02:38:09.893Z,10.85
2023-03-06T02:40:37.434Z,11.63
2023-03-06T02:43:05.706Z,11.57
2023-03-06T02:45:37.373Z,11.75
2023-03-06T02:48:04.950Z,10.98
2023-03-06T02:50:32.646Z,11.20
2023-03-06T02:53:01.205Z,11.93
2023-03-06T02:55:30.924Z,11.93
2023-03-06T02:57:58.307Z,10.30
2023-03-06T03:00:25.706Z,11.57
2023-03-06T03:02:53.160Z,11.68
2023-03-06T03:05:20.191Z,11.25
2023-03-06T03:07:52.917Z,12.02
2023-03-06T03:10:20.958Z,11.75
2023-03-06T03:12:48.368Z,11.82
2023-03-06T03:15:16.359Z,11.80
2023-03-06T03:17:44.145Z,11.02
2023-03-06T03:20:15.589Z,10.95
2023-03-06T03:22:42.737Z,10.32
2023-03-06T03:25:11.349Z,10.68
2023-03-06T03:27:38.188Z,11.35
2023-03-06T03:30:05.899Z,11.75
2023-03-06T03:32:32.725Z,10.93
2023-03-06T03:35:00.074Z,11.05
2023-03-06T03:37:27.739Z,10.73
2023-03-06T03:39:54.523Z,12.30
2023-03-06T03:42:21.408Z,11.18
2023-03-06T03:44:49.761Z,10.80
2023-03-06T03:47:17.888Z,11.80
2023-03-06T03:49:44.776Z,12.65
2023-03-06T03:52:11.613Z,11.20
2023-03-06T03:54:40.228Z,11.18
2023-03-06T03:57:07.096Z,11.15
2023-03-06T03:59:37.704Z,11.13
2023-03-06T04:02:21.786Z,10.75
2023-03-06T04:04:57.387Z,11.30
2023-03-06T04:07:24.477Z,10.15
2023-03-06T04:09:51.456Z,10.57
2023-03-06T04:12:18.961Z,11.00
2023-03-06T04:14:46.614Z,10.20
2023-03-06T04:17:14.070Z,10.10
2023-03-06T04:19:40.916Z,10.65
2023-03-06T04:22:07.919Z,10.13
2023-03-06T04:24:38.085Z,10.98
2023-03-06T04:27:05.357Z,10.35
2023-03-06T04:29:32.402Z,9.75
2023-03-06T04:31:59.990Z,10.40
2023-03-06T04:34:27.016Z,11.15
2023-03-06T04:36:53.866Z,10.32
2023-03-06T04:39:20.900Z,10.57
2023-03-06T04:41:48.544Z,11.07
2023-03-06T04:44:15.579Z,11.25
2023-03-06T04:46:42.334Z,10.38
2023-03-06T04:49:09.225Z,10.25
2023-03-06T04:51:36.986Z,10.80
2023-03-06T04:54:04.525Z,11.13
2023-03-06T04:56:31.445Z,10.65
2023-03-06T04:58:58.517Z,9.80
2023-03-06T05:01:25.748Z,9.50
2023-03-06T05:03:52.755Z,10.00
2023-03-06T05:06:19.514Z,10.73
2023-03-06T05:08:47.140Z,10.95
2023-03-06T05:11:13.951Z,10.63
2023-03-06T05:13:43.184Z,10.52
2023-03-06T05:16:10.414Z,11.43
2023-03-06T05:18:37.350Z,11.73
2023-03-06T05:21:05.813Z,11.63
2023-03-06T05:23:34.932Z,14.20
2023-03-06T05:26:04.740Z,16.33
2023-03-06T05:28:31.483Z,15.02
2023-03-06T05:30:58.253Z,14.77
2023-03-06T05:33:26.575Z,13.00
2023-03-06T05:35:53.420Z,12.63
2023-03-06T05:38:20.429Z,12.18
2023-03-06T05:40:47.930Z,10.18
2023-03-06T05:43:15.006Z,11.90
2023-03-06T05:45:41.857Z,11.45
2023-03-06T05:48:09.373Z,11.93
2023-03-06T05:50:36.434Z,11.43
2023-03-06T05:53:03.803Z,11.82
2023-03-06T05:55:31.144Z,12.00
2023-03-06T05:57:58.137Z,11.75
2023-03-06T06:00:25.236Z,12.45
2023-03-06T06:02:52.453Z,11.95
2023-03-06T06:05:19.623Z,10.82
2023-03-06T06:07:46.449Z,11.48
2023-03-06T06:10:13.679Z,14.23
2023-03-06T06:12:40.559Z,12.52
2023-03-06T06:15:08.001Z,11.13
2023-03-06T06:17:34.923Z,11.60
2023-03-06T06:20:01.751Z,11.05
2023-03-06T06:22:29.956Z,11.95
2023-03-06T06:24:56.764Z,11.68
2023-03-06T06:27:23.568Z,11.68
2023-03-06T06:29:52.306Z,11.32
2023-03-06T06:32:19.539Z,11.73
2023-03-06T06:34:46.408Z,10.55
2023-03-06T06:37:13.454Z,9.10
2023-03-06T06:39:40.448Z,10.65
2023-03-06T06:42:28.924Z,9.85
2023-03-06T06:44:55.403Z,11.23
2023-03-06T06:47:24.664Z,11.55
2023-03-06T06:49:53.181Z,10.75
2023-03-06T06:52:20.426Z,11.43
2023-03-06T06:54:47.258Z,11.38
2023-03-06T06:57:14.838Z,10.88
2023-03-06T06:59:41.661Z,10.90
2023-03-06T07:02:15.694Z,12.05
2023-03-06T07:05:00.347Z,11.13
2023-03-06T07:07:29.648Z,11.45
2023-03-06T07:09:56.520Z,11.60
2023-03-06T07:12:23.445Z,13.38
2023-03-06T07:14:50.411Z,11.75
2023-03-06T07:17:17.211Z,11.63
2023-03-06T07:19:44.054Z,12.55
2023-03-06T07:22:10.980Z,11.85
2023-03-06T07:24:37.866Z,10.80
2023-03-06T07:27:04.806Z,11.90
2023-03-06T07:29:34.028Z,11.27
2023-03-06T07:32:01.360Z,11.82
2023-03-06T07:34:28.328Z,12.57
2023-03-06T07:36:55.222Z,12.32
2023-03-06T07:39:22.560Z,11.65
2023-03-06T07:41:49.352Z,12.43
2023-03-06T07:44:16.146Z,11.73
2023-03-06T07:46:43.016Z,12.77
2023-03-06T07:49:09.896Z,12.23
2023-03-06T07:51:36.776Z,11.70
2023-03-06T07:54:03.667Z,12.52
2023-03-06T07:56:30.478Z,12.70
2023-03-06T07:58:57.348Z,13.30
2023-03-06T08:01:24.352Z,11.35
2023-03-06T08:03:51.586Z,12.98
2023-03-06T08:06:26.315Z,11.50
2023-03-06T08:08:54.583Z,12.65
2023-03-06T08:11:24.503Z,14.52
2023-03-06T08:13:52.991Z,12.52
2023-03-06T08:16:25.854Z,12.98
2023-03-06T08:18:52.838Z,13.32
2023-03-06T08:21:22.581Z,15.48
2023-03-06T08:23:50.511Z,15.60
2023-03-06T08:26:23.180Z,13.65
2023-03-06T08:28:55.827Z,14.18
2023-03-06T08:31:37.711Z,13.82
2023-03-06T08:34:09.529Z,13.48
2023-03-06T08:36:36.498Z,12.93
2023-03-06T08:39:04.569Z,13.20
2023-03-06T08:41:32.269Z,12.70
2023-03-06T08:43:59.151Z,12.52
2023-03-06T08:46:27.967Z,12.82
2023-03-06T08:48:54.767Z,12.05
2023-03-06T08:51:22.103Z,12.68
2023-03-06T08:53:50.282Z,12.80
2023-03-06T08:56:17.053Z,13.32
2023-03-06T08:58:43.974Z,11.32
2023-03-06T09:01:16.308Z,13.85
2023-03-06T09:03:43.988Z,15.35
2023-03-06T09:06:10.911Z,13.40
2023-03-06T09:08:38.359Z,12.85
2023-03-06T09:11:05.264Z,10.80
2023-03-06T09:13:32.171Z,11.95
2023-03-06T09:15:59.141Z,12.60
2023-03-06T09:18:25.992Z,10.95
2023-03-06T09:20:53.577Z,11.77
2023-03-06T09:23:20.431Z,11.65
2023-03-06T09:25:56.592Z,11.95
2023-03-06T09:28:23.813Z,11.70
2023-03-06T09:30:50.947Z,11.23
2023-03-06T09:33:17.953Z,10.30
2023-03-06T09:35:56.470Z,10.50
2023-03-06T09:38:26.937Z,12.40
2023-03-06T09:43:41.914Z,11.45
2023-03-06T09:46:47.091Z,11.05
2023-03-06T09:49:46.496Z,9.75
2023-03-06T09:52:20.820Z,10.70
2023-03-06T09:54:55.146Z,10.30
2023-03-06T09:57:28.454Z,10.98
2023-03-06T09:59:58.917Z,10.27
2023-03-06T10:02:41.077Z,11.35
2023-03-06T10:05:15.402Z,15.80
2023-03-06T10:07:50.989Z,11.73
2023-03-06T10:10:50.643Z,9.77
2023-03-06T10:13:38.456Z,10.48
2023-03-06T10:16:32.364Z,10.07
2023-03-06T10:19:05.356Z,9.75
2023-03-06T10:21:54.009Z,10.32
2023-03-06T10:24:49.310Z,9.75
2023-03-06T10:27:30.113Z,9.30
2023-03-06T10:30:14.426Z,9.50
2023-03-06T10:32:59.005Z,9.85
2023-03-06T10:35:32.745Z,10.00
2023-03-06T10:38:11.153Z,8.88
2023-03-06T10:40:50.920Z,7.45
2023-03-06T10:43:17.806Z,7.78
2023-03-06T10:45:50.687Z,8.32
2023-03-06T10:48:27.000Z,7.90
2023-03-06T10:51:17.820Z,7.50
2023-03-06T10:53:54.225Z,6.88
2023-03-06T10:56:34.504Z,7.85
2023-03-06T10:59:15.093Z,8.15
2023-03-06T11:01:44.849Z,8.13
2023-03-06T11:04:14.720Z,7.65
2023-03-06T11:06:41.617Z,7.63
2023-03-06T11:09:26.913Z,7.13
2023-03-06T11:12:22.137Z,7.32
2023-03-06T11:15:09.865Z,7.95
2023-03-06T11:17:48.828Z,7.88
2023-03-06T11:20:26.302Z,8.32
2023-03-06T11:23:02.657Z,9.10
2023-03-06T11:25:35.226Z,7.43
2023-03-06T11:28:22.752Z,7.43
2023-03-06T11:31:06.008Z,8.60
2023-03-06T11:34:09.291Z,7.75
2023-03-06T11:36:41.384Z,7.75
2023-03-06T11:39:31.455Z,7.53
2023-03-06T11:41:58.294Z,7.90
2023-03-06T11:44:28.212Z,7.93
2023-03-06T11:47:08.258Z,8.05
2023-03-06T11:49:46.734Z,7.32
2023-03-06T11:52:35.172Z,8.30
2023-03-06T11:55:02.297Z,8.55
2023-03-06T11:57:38.226Z,7.30
2023-03-06T12:00:08.263Z,7.57
2023-03-06T12:02:56.167Z,7.82
2023-03-06T12:05:31.655Z,7.35
2023-03-06T12:08:13.296Z,7.47
2023-03-06T12:10:51.897Z,7.07
2023-03-06T12:13:38.715Z,6.80
2023-03-06T12:16:26.959Z,7.68
2023-03-06T12:19:12.392Z,5.75
2023-03-06T12:21:50.238Z,7.20
2023-03-06T12:24:20.496Z,6.35
2023-03-06T12:27:09.046Z,7.25
2023-03-06T12:30:02.225Z,5.85
2023-03-06T12:32:37.611Z,6.10
2023-03-06T12:35:28.206Z,7.43
2023-03-06T12:38:04.105Z,7.47
2023-03-06T12:40:53.258Z,6.20
2023-03-06T12:43:42.784Z,5.57
2023-03-06T12:46:18.903Z,7.35
2023-03-06T12:48:57.520Z,7.20
2023-03-06T12:51:24.612Z,6.60
2023-03-06T12:53:51.961Z,6.05
2023-03-06T12:56:20.805Z,7.93
2023-03-06T12:58:54.261Z,6.03
2023-03-06T13:01:30.240Z,6.07
2023-03-06T13:04:13.219Z,5.20
2023-03-06T13:07:04.989Z,6.53
2023-03-06T13:09:42.781Z,5.75
2023-03-06T13:12:09.587Z,6.40
2023-03-06T13:14:45.190Z,5.35
2023-03-06T13:17:24.551Z,5.07
2023-03-06T13:20:13.177Z,4.82
2023-03-06T13:22:42.016Z,5.95
2023-03-06T13:25:21.078Z,5.43
2023-03-06T13:28:03.337Z,5.43
2023-03-06T13:30:39.277Z,5.03
2023-03-06T13:33:27.303Z,5.72
2023-03-06T13:35:57.054Z,4.97
2023-03-06T13:38:36.268Z,5.15
2023-03-06T13:41:22.076Z,5.35
2023-03-06T13:43:56.542Z,5.10
2023-03-06T13:46:27.335Z,5.20
2023-03-06T13:49:09.653Z,5.03
2023-03-06T13:51:55.755Z,5.25
2023-03-06T13:54:50.964Z,5.55
2023-03-06T13:57:36.434Z,5.50
2023-03-06T14:00:14.486Z,5.53
2023-03-06T14:02:59.578Z,5.55
2023-03-06T14:05:53.482Z,5.10
2023-03-06T14:08:27.116Z,5.45
2023-03-06T14:11:08.741Z,5.63
2023-03-06T14:13:47.550Z,5.72
2023-03-06T14:16:37.599Z,5.82
2023-03-06T14:19:17.368Z,5.20
2023-03-06T14:21:56.335Z,5.72
2023-03-06T14:24:43.369Z,5.90
2023-03-06T14:27:18.877Z,6.32
2023-03-06T14:29:49.775Z,5.97
2023-03-06T14:32:21.446Z,6.03
2023-03-06T14:34:48.606Z,7.20
2023-03-06T14:37:24.630Z,6.57
2023-03-06T14:39:51.953Z,6.30
2023-03-06T14:42:24.906Z,6.38
2023-03-06T14:45:16.217Z,7.55
2023-03-06T14:47:44.273Z,7.32
2023-03-06T14:50:33.157Z,8.25
2023-03-06T14:53:04.865Z,8.77
2023-03-06T14:55:34.952Z,8.40
2023-03-06T14:58:11.716Z,9.63
2023-03-06T15:00:44.213Z,8.02
2023-03-06T15:03:20.553Z,7.28
2023-03-06T15:05:48.693Z,9.35
2023-03-06T15:08:24.107Z,10.48
2023-03-06T15:11:03.594Z,9.48
2023-03-06T15:13:31.884Z,8.98
2023-03-06T15:16:01.725Z,8.82
2023-03-06T15:18:42.632Z,9.10
2023-03-06T15:21:40.681Z,8.90
2023-03-06T15:24:29.451Z,9.82
2023-03-06T15:27:06.585Z,9.27
2023-03-06T15:29:38.163Z,10.38
2023-03-06T15:32:32.451Z,10.30
2023-03-06T15:35:38.227Z,11.00
2023-03-06T15:38:24.603Z,9.50
2023-03-06T15:40:57.213Z,9.18
2023-03-06T15:43:24.165Z,10.18
2023-03-06T15:45:56.686Z,9.07
2023-03-06T15:48:23.817Z,10.02
2023-03-06T15:50:51.022Z,9.85
2023-03-06T15:53:17.838Z,8.43
2023-03-06T15:55:44.597Z,10.18
2023-03-06T15:58:16.462Z,9.07
2023-03-06T16:00:44.065Z,9.38
2023-03-06T16:03:11.842Z,11.77
2023-03-06T16:05:39.028Z,15.35
2023-03-06T16:08:06.479Z,12.10
2023-03-06T16:10:37.390Z,10.65
2023-03-06T16:13:08.573Z,10.48
2023-03-06T16:15:47.697Z,10.38
2023-03-06T16:18:15.137Z,10.23
2023-03-06T16:20:42.288Z,10.73
2023-03-06T16:23:12.342Z,9.73
2023-03-06T16:25:42.068Z,10.18
2023-03-06T16:28:14.428Z,9.68
2023-03-06T16:30:43.336Z,10.80
2023-03-06T16:33:11.876Z,10.60
2023-03-06T16:35:38.725Z,8.82
2023-03-06T16:38:05.915Z,8.77
2023-03-06T16:40:37.624Z,9.82
2023-03-06T16:43:05.804Z,10.25
2023-03-06T16:45:37.169Z,10.40
2023-03-06T16:48:04.822Z,10.82
2023-03-06T16:50:36.261Z,12.23
2023-03-06T16:53:04.189Z,11.82
2023-03-06T16:55:31.078Z,11.73
2023-03-06T16:57:57.897Z,10.98
2023-03-06T17:00:25.121Z,11.10
2023-03-06T17:02:53.341Z,12.27
2023-03-06T17:05:20.445Z,11.93
2023-03-06T17:07:47.525Z,11.90
2023-03-06T17:10:17.671Z,11.23
2023-03-06T17:12:44.836Z,11.30
2023-03-06T17:15:15.132Z,12.13
2023-03-06T17:17:41.965Z,12.65
2023-03-06T17:20:11.768Z,14.23
2023-03-06T17:22:38.849Z,14.07
2023-03-06T17:25:06.923Z,14.05
2023-03-06T17:27:34.598Z,13.70
2023-03-06T17:30:01.873Z,12.05
2023-03-06T17:32:29.151Z,14.40
2023-03-06T17:34:56.493Z,12.73
2023-03-06T17:37:23.496Z,14.60
2023-03-06T17:39:50.348Z,13.25
2023-03-06T17:42:17.233Z,16.67
2023-03-06T17:44:44.044Z,12.85
2023-03-06T17:47:11.390Z,12.45
2023-03-06T17:49:38.434Z,14.93
2023-03-06T17:52:05.976Z,13.65
2023-03-06T17:54:33.398Z,13.35
2023-03-06T17:57:03.495Z,12.93
2023-03-06T17:59:31.339Z,10.95
2023-03-06T18:01:59.043Z,12.48
2023-03-06T18:04:26.702Z,15.85
2023-03-06T18:06:53.520Z,16.17
2023-03-06T18:09:20.479Z,14.55
2023-03-06T18:11:47.334Z,14.07
2023-03-06T18:14:14.334Z,16.33
2023-03-06T18:16:41.297Z,11.65
2023-03-06T18:19:11.175Z,10.93
2023-03-06T18:21:39.608Z,10.80
2023-03-06T18:24:06.983Z,10.07
2023-03-06T18:26:33.909Z,10.07
2023-03-06T18:29:04.389Z,10.20
2023-03-06T18:31:34.873Z,10.60
2023-03-06T18:34:07.579Z,11.48
2023-03-06T18:36:35.788Z,11.27
2023-03-06T18:39:03.870Z,11.75
2023-03-06T18:41:31.468Z,11.23
2023-03-06T18:44:00.298Z,10.05
2023-03-06T18:46:32.018Z,11.38
2023-03-06T18:48:58.993Z,12.43
2023-03-06T18:51:26.270Z,12.60
2023-03-06T18:53:53.373Z,11.63
2023-03-06T18:56:21.858Z,14.32
2023-03-06T18:58:50.411Z,14.80
2023-03-06T19:01:17.846Z,13.90
2023-03-06T19:03:45.248Z,12.52
2023-03-06T19:06:15.050Z,11.80
2023-03-06T19:08:42.343Z,12.00
2023-03-06T19:11:16.793Z,10.80
2023-03-06T19:13:43.973Z,12.80
2023-03-06T19:16:19.333Z,11.88
2023-03-06T19:18:46.231Z,12.07
2023-03-06T19:21:15.981Z,12.65
2023-03-06T19:23:42.995Z,13.68
2023-03-06T19:26:10.571Z,12.65
2023-03-06T19:28:39.019Z,12.65
2023-03-06T19:31:19.518Z,12.07
2023-03-06T19:33:47.920Z,13.35
2023-03-06T19:36:15.880Z,13.63
2023-03-06T19:38:43.086Z,12.65
2023-03-06T19:41:13.959Z,12.68
2023-03-06T19:43:41.956Z,12.65
2023-03-06T19:46:13.520Z,11.82
2023-03-06T19:48:41.385Z,11.82
2023-03-06T19:51:08.963Z,11.63
2023-03-06T19:53:36.712Z,11.52
2023-03-06T19:56:09.511Z,10.25
2023-03-06T19:58:36.874Z,12.05
2023-03-06T20:01:06.000Z,11.32
2023-03-06T20:03:32.916Z,11.90
2023-03-06T20:05:59.798Z,11.75
2023-03-06T20:08:26.519Z,11.27
2023-03-06T20:10:53.372Z,12.52
2023-03-06T20:13:20.282Z,11.98
2023-03-06T20:15:47.132Z,13.80
2023-03-06T20:18:14.162Z,13.27
2023-03-06T20:20:41.112Z,11.63
2023-03-06T20:23:07.902Z,12.50
2023-03-06T20:25:36.341Z,11.52
2023-03-06T20:28:04.437Z,11.25
2023-03-06T20:30:37.849Z,12.63
2023-03-06T20:33:09.994Z,11.88
2023-03-06T20:35:41.253Z,11.13
2023-03-06T20:38:08.637Z,11.68
2023-03-06T20:40:39.893Z,12.02
2023-03-06T20:43:06.908Z,12.80
2023-03-06T20:45:34.773Z,12.88
2023-03-06T20:48:01.571Z,12.65
2023-03-06T20:50:28.339Z,12.02
2023-03-06T20:52:58.405Z,12.85
2023-03-06T20:55:25.265Z,11.82
2023-03-06T20:57:52.743Z,12.23
2023-03-06T21:00:21.182Z,11.45
2023-03-06T21:02:48.076Z,11.18
2023-03-06T21:05:15.100Z,11.45
2023-03-06T21:07:41.958Z,12.73
2023-03-06T21:10:09.507Z,13.90
2023-03-06T21:12:36.327Z,14.45
2023-03-06T21:15:03.680Z,13.13
2023-03-06T21:17:30.566Z,12.50
2023-03-06T21:19:58.478Z,14.98
2023-03-06T21:22:25.449Z,11.40
2023-03-06T21:24:52.405Z,12.30
2023-03-06T21:27:19.164Z,12.05
2023-03-06T21:29:46.485Z,11.73
2023-03-06T21:32:13.299Z,11.68
2023-03-06T21:34:40.906Z,10.98
2023-03-06T21:37:07.699Z,10.95
2023-03-06T21:39:35.082Z,11.40
2023-03-06T21:42:01.971Z,11.55
2023-03-06T21:44:28.755Z,13.20
2023-03-06T21:46:55.553Z,12.07
2023-03-06T21:49:25.986Z,12.85
2023-03-06T21:51:53.896Z,15.75
2023-03-06T21:54:21.405Z,13.10
2023-03-06T21:56:48.366Z,11.38
2023-03-06T21:59:15.139Z,12.48
2023-03-06T22:01:42.663Z,13.73
2023-03-06T22:04:09.785Z,13.13
2023-03-06T22:06:39.401Z,12.90
2023-03-06T22:09:06.752Z,15.13
2023-03-06T22:11:37.026Z,13.93
2023-03-06T22:14:05.518Z,12.18
2023-03-06T22:16:32.800Z,13.13
2023-03-06T22:18:59.733Z,14.68
2023-03-06T22:21:26.807Z,11.82
2023-03-06T22:23:57.689Z,13.50
2023-03-06T22:26:25.752Z,17.63
2023-03-06T22:28:52.669Z,15.90
2023-03-06T22:31:24.052Z,14.73
2023-03-06T22:33:52.582Z,12.88
2023-03-06T22:36:21.107Z,12.23
2023-03-06T22:38:49.145Z,14.07
2023-03-06T22:41:17.656Z,14.88
2023-03-06T22:43:44.593Z,15.18
2023-03-06T22:46:13.958Z,13.48
2023-03-06T22:48:41.327Z,12.35
2023-03-06T22:51:09.577Z,10.73
2023-03-06T22:53:37.347Z,10.25
2023-03-06T22:56:07.734Z,10.73
2023-03-06T22:58:37.355Z,10.63
2023-03-06T23:01:12.736Z,9.63
2023-03-06T23:03:42.523Z,9.63
2023-03-06T23:06:19.204Z,10.10
2023-03-06T23:08:53.928Z,9.65
2023-03-06T23:11:22.443Z,9.85
2023-03-06T23:14:08.037Z,9.80
2023-03-06T23:16:53.997Z,9.32
2023-03-06T23:19:39.474Z,10.02
2023-03-06T23:22:25.243Z,10.70
2023-03-06T23:25:10.728Z,9.27
2023-03-06T23:27:37.781Z,10.30
2023-03-06T23:30:09.420Z,9.85
2023-03-06T23:32:36.201Z,9.60
2023-03-06T23:35:03.106Z,9.38
2023-03-06T23:37:29.948Z,9.90
2023-03-06T23:39:57.208Z,9.38
2023-03-06T23:42:26.569Z,9.98
2023-03-06T23:44:53.451Z,9.85
2023-03-06T23:47:20.492Z,8.50
2023-03-06T23:49:47.404Z,9.32
2023-03-06T23:52:14.120Z,8.32
2023-03-06T23:54:41.088Z,8.95
2023-03-06T23:57:08.124Z,9.23
2023-03-06T23:59:35.072Z,9.18
